sensor_id;sensor_type;location;lat;lon;timestamp;pressure;altitude;pressure_sealevel;temperature;humidity
7105;BME280;3594;42.152;24.714;2024-02-14T00:00:39;-5584.44;;;7.68;nan
7105;BME280;3594;42.152;24.714;2024-02-14T00:03:06;-6222.41;;;7.47;nan
7105;BME280;3594;42.152;24.714;2024-02-14T00:05:32;-6541.00;;;7.82;nan
7105;BME280;3594;42.152;24.714;2024-02-14T00:07:57;-5903.38;;;7.66;nan
7105;BME280;3594;42.152;24.714;2024-02-14T00:10:22;-5584.06;;;7.86;nan
7105;BME280;3594;42.152;24.714;2024-02-14T00:12:48;-5265.16;;;7.81;nan
7105;BME280;3594;42.152;24.714;2024-02-14T00:15:14;-4627.25;;;7.75;nan
7105;BME280;3594;42.152;24.714;2024-02-14T00:17:40;-4307.78;;;7.85;nan
7105;BME280;3594;42.152;24.714;2024-02-14T00:20:05;-3988.75;;;7.82;nan
7105;BME280;3594;42.152;24.714;2024-02-14T00:22:31;-3669.50;;;7.84;nan
7105;BME280;3594;42.152;24.714;2024-02-14T00:24:57;-1433.19;;;7.97;nan
7105;BME280;3594;42.152;24.714;2024-02-14T00:27:22;161.72;;;7.72;nan
7105;BME280;3594;42.152;24.714;2024-02-14T00:29:47;1764.94;;;8.10;nan
7105;BME280;3594;42.152;24.714;2024-02-14T00:32:13;2401.31;;;7.87;nan
7105;BME280;3594;42.152;24.714;2024-02-14T00:34:39;484.66;;;8.01;nan
7105;BME280;3594;42.152;24.714;2024-02-14T00:37:04;163.97;;;7.92;nan
7105;BME280;3594;42.152;24.714;2024-02-14T00:39:29;1444.09;;;8.03;nan
7105;BME280;3594;42.152;24.714;2024-02-14T00:41:55;1121.50;;;7.81;nan
7105;BME280;3594;42.152;24.714;2024-02-14T00:44:21;-154.81;;;7.99;nan
7105;BME280;3594;42.152;24.714;2024-02-14T00:46:47;-1117.88;;;7.52;nan
7105;BME280;3594;42.152;24.714;2024-02-14T00:49:14;-1436.47;;;7.60;nan
7105;BME280;3594;42.152;24.714;2024-02-14T00:51:39;-2392.06;;;7.90;nan
7105;BME280;3594;42.152;24.714;2024-02-14T00:54:06;-3351.09;;;7.70;nan
7105;BME280;3594;42.152;24.714;2024-02-14T00:56:31;-2713.09;;;7.64;nan
7105;BME280;3594;42.152;24.714;2024-02-14T00:58:57;-3031.91;;;7.70;nan
7105;BME280;3594;42.152;24.714;2024-02-14T01:01:22;-2711.75;;;7.84;nan
7105;BME280;3594;42.152;24.714;2024-02-14T01:03:48;-2711.63;;;7.86;nan
7105;BME280;3594;42.152;24.714;2024-02-14T01:06:14;-3353.50;;;7.27;nan
7105;BME280;3594;42.152;24.714;2024-02-14T01:08:40;-3031.44;;;7.78;nan
7105;BME280;3594;42.152;24.714;2024-02-14T01:11:07;-2711.69;;;7.85;nan
7105;BME280;3594;42.152;24.714;2024-02-14T01:13:33;-2392.78;;;7.80;nan
7105;BME280;3594;42.152;24.714;2024-02-14T01:15:58;-1756.00;;;7.57;nan
7105;BME280;3594;42.152;24.714;2024-02-14T01:18:23;-1756.38;;;7.52;nan
7105;BME280;3594;42.152;24.714;2024-02-14T01:20:49;-1433.97;;;7.89;nan
7105;BME280;3594;42.152;24.714;2024-02-14T01:23:15;-2073.25;;;7.83;nan
7105;BME280;3594;42.152;24.714;2024-02-14T01:25:40;-475.34;;;7.90;nan
7105;BME280;3594;42.152;24.714;2024-02-14T01:28:07;164.03;;;7.92;nan
7105;BME280;3594;42.152;24.714;2024-02-14T01:30:34;164.03;;;7.92;nan
7105;BME280;3594;42.152;24.714;2024-02-14T01:33:01;-2075.38;;;7.55;nan
7105;BME280;3594;42.152;24.714;2024-02-14T01:35:29;-2073.94;;;7.74;nan
7105;BME280;3594;42.152;24.714;2024-02-14T01:37:54;-2714.50;;;7.43;nan
7105;BME280;3594;42.152;24.714;2024-02-14T01:40:20;-2393.06;;;7.76;nan
7105;BME280;3594;42.152;24.714;2024-02-14T01:42:46;-2712.22;;;7.77;nan
7105;BME280;3594;42.152;24.714;2024-02-14T01:45:11;-2393.97;;;7.63;nan
7105;BME280;3594;42.152;24.714;2024-02-14T01:47:37;-2713.63;;;7.57;nan
7105;BME280;3594;42.152;24.714;2024-02-14T01:50:05;-2713.22;;;7.63;nan
7105;BME280;3594;42.152;24.714;2024-02-14T01:52:33;-1757.09;;;7.44;nan
7105;BME280;3594;42.152;24.714;2024-02-14T01:54:59;-797.25;;;7.66;nan
7105;BME280;3594;42.152;24.714;2024-02-14T01:57:25;-2076.16;;;7.45;nan
7105;BME280;3594;42.152;24.714;2024-02-14T01:59:51;480.09;;;7.63;nan
7105;BME280;3594;42.152;24.714;2024-02-14T02:02:19;478.19;;;7.46;nan
7105;BME280;3594;42.152;24.714;2024-02-14T02:04:44;1761.34;;;7.84;nan
7105;BME280;3594;42.152;24.714;2024-02-14T02:07:09;2076.09;;;7.50;nan
7105;BME280;3594;42.152;24.714;2024-02-14T02:09:35;1759.91;;;7.74;nan
7105;BME280;3594;42.152;24.714;2024-02-14T02:12:01;4316.91;;;7.67;nan
7105;BME280;3594;42.152;24.714;2024-02-14T02:14:26;4640.69;;;7.87;nan
7105;BME280;3594;42.152;24.714;2024-02-14T02:16:51;3998.84;;;7.77;nan
7105;BME280;3594;42.152;24.714;2024-02-14T02:19:18;2396.38;;;7.54;nan
7105;BME280;3594;42.152;24.714;2024-02-14T02:21:44;3360.44;;;7.85;nan
7105;BME280;3594;42.152;24.714;2024-02-14T02:24:11;4960.34;;;7.85;nan
7105;BME280;3594;42.152;24.714;2024-02-14T02:26:36;5279.50;;;7.81;nan
7105;BME280;3594;42.152;24.714;2024-02-14T02:29:02;5275.19;;;7.59;nan
7105;BME280;3594;42.152;24.714;2024-02-14T02:31:27;5280.38;;;7.85;nan
7105;BME280;3594;42.152;24.714;2024-02-14T02:33:53;5918.06;;;7.73;nan
7105;BME280;3594;42.152;24.714;2024-02-14T02:36:18;4635.09;;;7.58;nan
7105;BME280;3594;42.152;24.714;2024-02-14T02:38:43;7203.13;;;7.93;nan
7105;BME280;3594;42.152;24.714;2024-02-14T02:41:09;6883.19;;;7.94;nan
7105;BME280;3594;42.152;24.714;2024-02-14T02:43:34;4000.34;;;7.85;nan
7105;BME280;3594;42.152;24.714;2024-02-14T02:46:01;5281.28;;;7.90;nan
7105;BME280;3594;42.152;24.714;2024-02-14T02:48:26;5602.72;;;7.96;nan
7105;BME280;3594;42.152;24.714;2024-02-14T02:50:52;5921.44;;;7.89;nan
7105;BME280;3594;42.152;24.714;2024-02-14T02:53:18;7842.56;;;7.88;nan
7105;BME280;3594;42.152;24.714;2024-02-14T02:55:44;10083.16;;;7.79;nan
7105;BME280;3594;42.152;24.714;2024-02-14T02:58:10;10088.34;;;7.97;nan
7105;BME280;3594;42.152;24.714;2024-02-14T03:00:36;12975.34;;;7.98;nan
7105;BME280;3594;42.152;24.714;2024-02-14T03:03:01;12010.50;;;7.91;nan
7105;BME280;3594;42.152;24.714;2024-02-14T03:05:29;11682.25;;;7.66;nan
7105;BME280;3594;42.152;24.714;2024-02-14T03:07:57;12656.09;;;8.04;nan
7105;BME280;3594;42.152;24.714;2024-02-14T03:10:23;12645.94;;;7.72;nan
7105;BME280;3594;42.152;24.714;2024-02-14T03:12:50;11689.59;;;7.90;nan
7105;BME280;3594;42.152;24.714;2024-02-14T03:15:16;12649.97;;;7.84;nan
7105;BME280;3594;42.152;24.714;2024-02-14T03:17:42;11053.25;;;8.08;nan
7105;BME280;3594;42.152;24.714;2024-02-14T03:20:08;9440.34;;;7.72;nan
7105;BME280;3594;42.152;24.714;2024-02-14T03:22:39;8802.56;;;7.83;nan
7105;BME280;3594;42.152;24.714;2024-02-14T03:25:13;7198.50;;;7.73;nan
7105;BME280;3594;42.152;24.714;2024-02-14T03:27:39;8483.56;;;7.89;nan
7105;BME280;3594;42.152;24.714;2024-02-14T03:30:05;7836.03;;;7.61;nan
7105;BME280;3594;42.152;24.714;2024-02-14T03:32:31;9123.91;;;7.87;nan
7105;BME280;3594;42.152;24.714;2024-02-14T03:34:56;10404.13;;;7.80;nan
7105;BME280;3594;42.152;24.714;2024-02-14T03:37:22;10727.13;;;7.89;nan
7105;BME280;3594;42.152;24.714;2024-02-14T03:39:47;10088.06;;;7.96;nan
7105;BME280;3594;42.152;24.714;2024-02-14T03:42:13;10719.75;;;7.63;nan
7105;BME280;3594;42.152;24.714;2024-02-14T03:44:39;9765.97;;;7.91;nan
7105;BME280;3594;42.152;24.714;2024-02-14T03:47:05;7193.75;;;7.52;nan
7105;BME280;3594;42.152;24.714;2024-02-14T03:49:31;7193.06;;;7.49;nan
7105;BME280;3594;42.152;24.714;2024-02-14T03:51:56;9109.81;;;7.33;nan
7105;BME280;3594;42.152;24.714;2024-02-14T03:54:22;9440.75;;;7.73;nan
7105;BME280;3594;42.152;24.714;2024-02-14T03:56:48;7842.31;;;7.87;nan
7105;BME280;3594;42.152;24.714;2024-02-14T03:59:14;7202.06;;;7.88;nan
7105;BME280;3594;42.152;24.714;2024-02-14T04:01:46;10085.41;;;7.87;nan
7105;BME280;3594;42.152;24.714;2024-02-14T04:04:11;12645.47;;;7.70;nan
7105;BME280;3594;42.152;24.714;2024-02-14T04:06:37;11366.19;;;7.81;nan
7105;BME280;3594;42.152;24.714;2024-02-14T04:09:02;11999.44;;;7.55;nan
7105;BME280;3594;42.152;24.714;2024-02-14T04:11:28;10724.25;;;7.79;nan
7105;BME280;3594;42.152;24.714;2024-02-14T04:13:53;11044.66;;;7.78;nan
7105;BME280;3594;42.152;24.714;2024-02-14T04:16:19;9766.22;;;7.92;nan
7105;BME280;3594;42.152;24.714;2024-02-14T04:18:45;11365.13;;;7.78;nan
7105;BME280;3594;42.152;24.714;2024-02-14T04:21:11;11366.47;;;7.82;nan
7105;BME280;3594;42.152;24.714;2024-02-14T04:23:36;12648.53;;;7.80;nan
7105;BME280;3594;42.152;24.714;2024-02-14T04:26:02;15543.09;;;7.97;nan
7105;BME280;3594;42.152;24.714;2024-02-14T04:28:27;13606.72;;;7.67;nan
7105;BME280;3594;42.152;24.714;2024-02-14T04:30:52;12002.72;;;7.66;nan
7105;BME280;3594;42.152;24.714;2024-02-14T04:33:20;13937.28;;;7.96;nan
7105;BME280;3594;42.152;24.714;2024-02-14T04:35:46;12651.59;;;7.89;nan
7105;BME280;3594;42.152;24.714;2024-02-14T04:38:12;13928.72;;;7.71;nan
7105;BME280;3594;42.152;24.714;2024-02-14T04:40:37;13606.38;;;7.66;nan
7105;BME280;3594;42.152;24.714;2024-02-14T04:43:04;13286.94;;;7.70;nan
7105;BME280;3594;42.152;24.714;2024-02-14T04:45:29;15221.97;;;7.97;nan
7105;BME280;3594;42.152;24.714;2024-02-14T04:47:55;14577.19;;;7.90;nan
7105;BME280;3594;42.152;24.714;2024-02-14T04:50:20;14888.50;;;7.63;nan
7105;BME280;3594;42.152;24.714;2024-02-14T04:52:45;12329.69;;;7.86;nan
7105;BME280;3594;42.152;24.714;2024-02-14T04:55:11;13607.91;;;7.71;nan
7105;BME280;3594;42.152;24.714;2024-02-14T04:57:36;15210.84;;;7.67;nan
7105;BME280;3594;42.152;24.714;2024-02-14T05:00:03;14573.81;;;7.80;nan
7105;BME280;3594;42.152;24.714;2024-02-14T05:02:30;16496.22;;;7.70;nan
7105;BME280;3594;42.152;24.714;2024-02-14T05:04:56;15199.75;;;7.36;nan
7105;BME280;3594;42.152;24.714;2024-02-14T05:07:21;18105.31;;;7.78;nan
7105;BME280;3594;42.152;24.714;2024-02-14T05:09:47;18419.50;;;7.61;nan
7105;BME280;3594;42.152;24.714;2024-02-14T05:12:15;17788.31;;;7.89;nan
7105;BME280;3594;42.152;24.714;2024-02-14T05:14:40;18745.41;;;7.72;nan
7105;BME280;3594;42.152;24.714;2024-02-14T05:17:07;17781.59;;;7.72;nan
7105;BME280;3594;42.152;24.714;2024-02-14T05:19:33;15844.56;;;7.44;nan
7105;BME280;3594;42.152;24.714;2024-02-14T05:21:58;17790.16;;;7.93;nan
7105;BME280;3594;42.152;24.714;2024-02-14T05:24:24;18096.44;;;7.57;nan
7105;BME280;3594;42.152;24.714;2024-02-14T05:26:52;16166.22;;;7.46;nan
7105;BME280;3594;42.152;24.714;2024-02-14T05:29:18;17454.97;;;7.59;nan
7105;BME280;3594;42.152;24.714;2024-02-14T05:31:46;20040.44;;;7.94;nan
7105;BME280;3594;42.152;24.714;2024-02-14T05:34:13;19396.75;;;7.92;nan
7105;BME280;3594;42.152;24.714;2024-02-14T05:36:38;22277.38;;;7.63;nan
7105;BME280;3594;42.152;24.714;2024-02-14T05:39:04;22279.53;;;7.68;nan
7105;BME280;3594;42.152;24.714;2024-02-14T05:41:33;23581.16;;;7.97;nan
7105;BME280;3594;42.152;24.714;2024-02-14T05:43:59;22612.63;;;7.91;nan
7105;BME280;3594;42.152;24.714;2024-02-14T05:46:25;24873.25;;;8.06;nan
7105;BME280;3594;42.152;24.714;2024-02-14T05:48:51;26813.25;;;8.18;nan
7105;BME280;3594;42.152;24.714;2024-02-14T05:51:20;27122.66;;;7.95;nan
7105;BME280;3594;42.152;24.714;2024-02-14T05:53:46;30359.88;;;8.17;nan
7105;BME280;3594;42.152;24.714;2024-02-14T05:56:11;29708.25;;;8.06;nan
7105;BME280;3594;42.152;24.714;2024-02-14T05:58:37;30989.91;;;7.92;nan
7105;BME280;3594;42.152;24.714;2024-02-14T06:01:03;32623.91;;;8.24;nan
7105;BME280;3594;42.152;24.714;2024-02-14T06:03:28;34241.63;;;8.28;nan
7105;BME280;3594;42.152;24.714;2024-02-14T06:05:54;32950.81;;;8.30;nan
7105;BME280;3594;42.152;24.714;2024-02-14T06:08:20;36506.28;;;8.31;nan
7105;BME280;3594;42.152;24.714;2024-02-14T06:10:45;35225.75;;;8.49;nan
7105;BME280;3594;42.152;24.714;2024-02-14T06:13:11;39326.09;;;8.54;nan
7105;BME280;3594;42.152;24.714;2024-02-14T06:15:36;36194.00;;;8.47;nan
7105;BME280;3594;42.152;24.714;2024-02-14T06:18:02;41625.63;;;8.60;nan
7105;BME280;3594;42.152;24.714;2024-02-14T06:20:27;41776.44;;;8.65;nan
7105;BME280;3594;42.152;24.714;2024-02-14T06:22:53;44608.75;;;8.78;nan
7105;BME280;3594;42.152;24.714;2024-02-14T06:25:20;48268.22;;;8.65;nan
7105;BME280;3594;42.152;24.714;2024-02-14T06:27:45;48975.34;;;8.89;nan
7105;BME280;3594;42.152;24.714;2024-02-14T06:30:11;47185.13;;;8.76;nan
7105;BME280;3594;42.152;24.714;2024-02-14T06:32:36;48995.19;;;8.83;nan
7105;BME280;3594;42.152;24.714;2024-02-14T06:35:02;50499.50;;;8.63;nan
7105;BME280;3594;42.152;24.714;2024-02-14T06:37:27;51276.66;;;8.85;nan
7105;BME280;3594;42.152;24.714;2024-02-14T06:39:53;50833.38;;;8.57;nan
7105;BME280;3594;42.152;24.714;2024-02-14T06:42:18;49889.31;;;9.00;nan
7105;BME280;3594;42.152;24.714;2024-02-14T06:44:45;52437.97;;;8.65;nan
7105;BME280;3594;42.152;24.714;2024-02-14T06:47:10;52103.56;;;9.00;nan
7105;BME280;3594;42.152;24.714;2024-02-14T06:49:36;52861.19;;;9.03;nan
7105;BME280;3594;42.152;24.714;2024-02-14T06:52:01;53471.03;;;8.74;nan
7105;BME280;3594;42.152;24.714;2024-02-14T06:54:27;53254.19;;;8.68;nan
7105;BME280;3594;42.152;24.714;2024-02-14T06:56:52;54729.66;;;9.10;nan
7105;BME280;3594;42.152;24.714;2024-02-14T06:59:18;54346.66;;;9.11;nan
7105;BME280;3594;42.152;24.714;2024-02-14T07:01:43;53999.88;;;9.10;nan
7105;BME280;3594;42.152;24.714;2024-02-14T07:04:09;54651.66;;;8.78;nan
7105;BME280;3594;42.152;24.714;2024-02-14T07:06:35;54795.63;;;8.93;nan
7105;BME280;3594;42.152;24.714;2024-02-14T07:09:01;55675.28;;;9.10;nan
7105;BME280;3594;42.152;24.714;2024-02-14T07:11:26;56010.44;;;9.24;nan
7105;BME280;3594;42.152;24.714;2024-02-14T07:13:52;55386.56;;;9.26;nan
7105;BME280;3594;42.152;24.714;2024-02-14T07:16:17;55287.91;;;9.29;nan
7105;BME280;3594;42.152;24.714;2024-02-14T07:18:43;55942.81;;;9.27;nan
7105;BME280;3594;42.152;24.714;2024-02-14T07:21:08;56858.84;;;8.86;nan
7105;BME280;3594;42.152;24.714;2024-02-14T07:23:34;56528.94;;;9.21;nan
7105;BME280;3594;42.152;24.714;2024-02-14T07:26:00;56660.41;;;9.25;nan
7105;BME280;3594;42.152;24.714;2024-02-14T07:28:27;56921.41;;;9.34;nan
7105;BME280;3594;42.152;24.714;2024-02-14T07:30:52;57671.75;;;9.30;nan
7105;BME280;3594;42.152;24.714;2024-02-14T07:33:18;57681.94;;;9.30;nan
7105;BME280;3594;42.152;24.714;2024-02-14T07:35:43;57518.84;;;9.47;nan
7105;BME280;3594;42.152;24.714;2024-02-14T07:38:09;57973.25;;;9.48;nan
7105;BME280;3594;42.152;24.714;2024-02-14T07:40:35;58076.16;;;9.40;nan
7105;BME280;3594;42.152;24.714;2024-02-14T07:43:00;58194.31;;;9.31;nan
7105;BME280;3594;42.152;24.714;2024-02-14T07:45:26;58274.47;;;9.35;nan
7105;BME280;3594;42.152;24.714;2024-02-14T07:47:52;58219.94;;;9.50;nan
7105;BME280;3594;42.152;24.714;2024-02-14T07:50:18;58204.38;;;9.21;nan
7105;BME280;3594;42.152;24.714;2024-02-14T07:52:44;58313.13;;;9.49;nan
7105;BME280;3594;42.152;24.714;2024-02-14T07:55:10;58208.31;;;9.51;nan
7105;BME280;3594;42.152;24.714;2024-02-14T07:57:39;58178.09;;;9.49;nan
7105;BME280;3594;42.152;24.714;2024-02-14T08:00:05;58226.13;;;9.51;nan
7105;BME280;3594;42.152;24.714;2024-02-14T08:02:33;58855.00;;;9.32;nan
7105;BME280;3594;42.152;24.714;2024-02-14T08:04:59;58908.53;;;9.53;nan
7105;BME280;3594;42.152;24.714;2024-02-14T08:07:24;58829.38;;;9.65;nan
7105;BME280;3594;42.152;24.714;2024-02-14T08:09:49;59143.00;;;9.27;nan
7105;BME280;3594;42.152;24.714;2024-02-14T08:12:15;59023.25;;;9.74;nan
7105;BME280;3594;42.152;24.714;2024-02-14T08:14:40;59148.88;;;9.70;nan
7105;BME280;3594;42.152;24.714;2024-02-14T08:17:06;59105.81;;;9.54;nan
7105;BME280;3594;42.152;24.714;2024-02-14T08:19:31;59186.31;;;9.60;nan
7105;BME280;3594;42.152;24.714;2024-02-14T08:21:56;59343.59;;;9.39;nan
7105;BME280;3594;42.152;24.714;2024-02-14T08:24:27;59256.06;;;9.66;nan
7105;BME280;3594;42.152;24.714;2024-02-14T08:26:53;59119.13;;;9.62;nan
7105;BME280;3594;42.152;24.714;2024-02-14T08:29:20;59192.59;;;9.75;nan
7105;BME280;3594;42.152;24.714;2024-02-14T08:31:46;59316.97;;;9.75;nan
7105;BME280;3594;42.152;24.714;2024-02-14T08:34:11;59218.13;;;9.83;nan
7105;BME280;3594;42.152;24.714;2024-02-14T08:36:37;59317.66;;;9.71;nan
7105;BME280;3594;42.152;24.714;2024-02-14T08:39:09;59344.19;;;9.65;nan
7105;BME280;3594;42.152;24.714;2024-02-14T08:41:38;59234.69;;;9.79;nan
7105;BME280;3594;42.152;24.714;2024-02-14T08:44:05;59116.78;;;9.64;nan
7105;BME280;3594;42.152;24.714;2024-02-14T08:46:31;59225.69;;;9.68;nan
7105;BME280;3594;42.152;24.714;2024-02-14T08:48:56;59110.25;;;9.65;nan
7105;BME280;3594;42.152;24.714;2024-02-14T08:51:22;59080.81;;;9.34;nan
7105;BME280;3594;42.152;24.714;2024-02-14T08:53:48;58932.19;;;9.56;nan
7105;BME280;3594;42.152;24.714;2024-02-14T08:56:14;59001.66;;;9.38;nan
7105;BME280;3594;42.152;24.714;2024-02-14T08:58:40;59167.94;;;9.60;nan
7105;BME280;3594;42.152;24.714;2024-02-14T09:01:05;59059.22;;;9.51;nan
7105;BME280;3594;42.152;24.714;2024-02-14T09:03:32;58987.69;;;8.95;nan
7105;BME280;3594;42.152;24.714;2024-02-14T09:05:58;58781.13;;;9.04;nan
7105;BME280;3594;42.152;24.714;2024-02-14T09:08:23;58910.91;;;9.51;nan
7105;BME280;3594;42.152;24.714;2024-02-14T09:10:50;58805.50;;;9.31;nan
7105;BME280;3594;42.152;24.714;2024-02-14T09:13:15;58609.25;;;9.28;nan
7105;BME280;3594;42.152;24.714;2024-02-14T09:15:41;58650.63;;;9.60;nan
7105;BME280;3594;42.152;24.714;2024-02-14T09:18:06;58552.81;;;9.38;nan
7105;BME280;3594;42.152;24.714;2024-02-14T09:20:31;58600.88;;;9.25;nan
7105;BME280;3594;42.152;24.714;2024-02-14T09:22:57;58525.81;;;9.53;nan
7105;BME280;3594;42.152;24.714;2024-02-14T09:25:24;58298.88;;;9.34;nan
7105;BME280;3594;42.152;24.714;2024-02-14T09:27:50;57730.88;;;9.41;nan
7105;BME280;3594;42.152;24.714;2024-02-14T09:30:16;57001.44;;;9.13;nan
7105;BME280;3594;42.152;24.714;2024-02-14T09:32:44;56481.72;;;9.39;nan
7105;BME280;3594;42.152;24.714;2024-02-14T09:35:09;54882.09;;;8.98;nan
7105;BME280;3594;42.152;24.714;2024-02-14T09:37:35;52179.34;;;9.41;nan
7105;BME280;3594;42.152;24.714;2024-02-14T09:40:04;46593.97;;;9.19;nan
7105;BME280;3594;42.152;24.714;2024-02-14T09:42:44;44865.47;;;9.03;nan
7105;BME280;3594;42.152;24.714;2024-02-14T09:45:11;40904.94;;;9.22;nan
7105;BME280;3594;42.152;24.714;2024-02-14T09:47:37;39824.81;;;9.27;nan
7105;BME280;3594;42.152;24.714;2024-02-14T09:50:03;40541.19;;;8.97;nan
7105;BME280;3594;42.152;24.714;2024-02-14T09:52:33;42059.13;;;9.05;nan
7105;BME280;3594;42.152;24.714;2024-02-14T09:54:58;41050.44;;;9.43;nan
7105;BME280;3594;42.152;24.714;2024-02-14T09:57:25;42046.28;;;9.36;nan
7105;BME280;3594;42.152;24.714;2024-02-14T09:59:51;43179.69;;;9.18;nan
7105;BME280;3594;42.152;24.714;2024-02-14T10:02:17;44839.88;;;9.53;nan
7105;BME280;3594;42.152;24.714;2024-02-14T10:04:43;42677.75;;;9.58;nan
7105;BME280;3594;42.152;24.714;2024-02-14T10:07:08;52328.63;;;9.93;nan
7105;BME280;3594;42.152;24.714;2024-02-14T10:09:40;53294.78;;;9.61;nan
7105;BME280;3594;42.152;24.714;2024-02-14T10:12:07;53185.00;;;10.04;nan
7105;BME280;3594;42.152;24.714;2024-02-14T10:14:34;55545.25;;;10.04;nan
7105;BME280;3594;42.152;24.714;2024-02-14T10:17:01;55869.28;;;9.80;nan
7105;BME280;3594;42.152;24.714;2024-02-14T10:19:26;57396.63;;;10.00;nan
7105;BME280;3594;42.152;24.714;2024-02-14T10:21:59;57299.13;;;10.19;nan
7105;BME280;3594;42.152;24.714;2024-02-14T10:24:28;53597.50;;;10.02;nan
7105;BME280;3594;42.152;24.714;2024-02-14T10:26:54;54174.84;;;10.29;nan
7105;BME280;3594;42.152;24.714;2024-02-14T10:29:23;53226.38;;;10.49;nan
7105;BME280;3594;42.152;24.714;2024-02-14T10:31:49;56796.91;;;10.46;nan
7105;BME280;3594;42.152;24.714;2024-02-14T10:34:16;57462.78;;;10.29;nan
7105;BME280;3594;42.152;24.714;2024-02-14T10:36:45;57170.66;;;10.67;nan
7105;BME280;3594;42.152;24.714;2024-02-14T10:39:11;58516.75;;;10.70;nan
7105;BME280;3594;42.152;24.714;2024-02-14T10:41:36;58631.44;;;10.68;nan
7105;BME280;3594;42.152;24.714;2024-02-14T10:44:05;58628.69;;;10.72;nan
7105;BME280;3594;42.152;24.714;2024-02-14T10:46:32;59551.28;;;10.59;nan
7105;BME280;3594;42.152;24.714;2024-02-14T10:49:05;59577.78;;;10.64;nan
7105;BME280;3594;42.152;24.714;2024-02-14T10:51:33;59480.41;;;10.85;nan
7105;BME280;3594;42.152;24.714;2024-02-14T10:54:03;59648.94;;;10.67;nan
7105;BME280;3594;42.152;24.714;2024-02-14T10:56:31;59493.75;;;10.11;nan
7105;BME280;3594;42.152;24.714;2024-02-14T10:58:57;59632.78;;;10.75;nan
7105;BME280;3594;42.152;24.714;2024-02-14T11:01:28;59709.31;;;10.98;nan
7105;BME280;3594;42.152;24.714;2024-02-14T11:03:59;59691.88;;;10.92;nan
7105;BME280;3594;42.152;24.714;2024-02-14T11:06:25;59313.75;;;11.03;nan
7105;BME280;3594;42.152;24.714;2024-02-14T11:09:00;59633.44;;;11.20;nan
7105;BME280;3594;42.152;24.714;2024-02-14T11:11:30;59494.25;;;11.05;nan
7105;BME280;3594;42.152;24.714;2024-02-14T11:13:57;59847.06;;;11.26;nan
7105;BME280;3594;42.152;24.714;2024-02-14T11:16:25;59910.97;;;11.26;nan
7105;BME280;3594;42.152;24.714;2024-02-14T11:18:53;59775.56;;;10.84;nan
7105;BME280;3594;42.152;24.714;2024-02-14T11:21:19;59855.59;;;10.94;nan
7105;BME280;3594;42.152;24.714;2024-02-14T11:23:53;60084.44;;;11.28;nan
7105;BME280;3594;42.152;24.714;2024-02-14T11:26:19;59997.75;;;11.42;nan
7105;BME280;3594;42.152;24.714;2024-02-14T11:28:45;60106.41;;;11.97;nan
7105;BME280;3594;42.152;24.714;2024-02-14T11:31:16;60225.25;;;11.70;nan
7105;BME280;3594;42.152;24.714;2024-02-14T11:33:43;60212.03;;;11.65;nan
7105;BME280;3594;42.152;24.714;2024-02-14T11:36:14;60334.13;;;11.41;nan
7105;BME280;3594;42.152;24.714;2024-02-14T11:38:42;60277.06;;;11.27;nan
7105;BME280;3594;42.152;24.714;2024-02-14T11:41:07;60333.41;;;11.50;nan
7105;BME280;3594;42.152;24.714;2024-02-14T11:43:34;60377.44;;;11.34;nan
7105;BME280;3594;42.152;24.714;2024-02-14T11:46:00;60394.72;;;11.06;nan
7105;BME280;3594;42.152;24.714;2024-02-14T11:48:25;60366.44;;;11.15;nan
7105;BME280;3594;42.152;24.714;2024-02-14T11:50:52;60459.50;;;11.21;nan
7105;BME280;3594;42.152;24.714;2024-02-14T11:53:18;60457.97;;;11.26;nan
7105;BME280;3594;42.152;24.714;2024-02-14T11:55:45;60499.38;;;11.31;nan
7105;BME280;3594;42.152;24.714;2024-02-14T11:58:15;60547.63;;;10.96;nan
7105;BME280;3594;42.152;24.714;2024-02-14T12:00:45;60440.88;;;11.13;nan
7105;BME280;3594;42.152;24.714;2024-02-14T12:03:19;60458.53;;;11.11;nan
7105;BME280;3594;42.152;24.714;2024-02-14T12:05:47;60426.50;;;10.91;nan
7105;BME280;3594;42.152;24.714;2024-02-14T12:08:13;60451.09;;;10.81;nan
7105;BME280;3594;42.152;24.714;2024-02-14T12:10:39;60420.00;;;10.55;nan
7105;BME280;3594;42.152;24.714;2024-02-14T12:13:14;60392.41;;;10.92;nan
7105;BME280;3594;42.152;24.714;2024-02-14T12:15:46;60376.44;;;10.64;nan
7105;BME280;3594;42.152;24.714;2024-02-14T12:18:12;60602.16;;;10.74;nan
7105;BME280;3594;42.152;24.714;2024-02-14T12:20:39;60357.22;;;10.77;nan
7105;BME280;3594;42.152;24.714;2024-02-14T12:23:05;60472.09;;;10.44;nan
7105;BME280;3594;42.152;24.714;2024-02-14T12:25:31;60492.94;;;10.54;nan
7105;BME280;3594;42.152;24.714;2024-02-14T12:27:57;60489.63;;;10.67;nan
7105;BME280;3594;42.152;24.714;2024-02-14T12:30:41;60552.78;;;10.55;nan
7105;BME280;3594;42.152;24.714;2024-02-14T12:33:07;60582.34;;;10.91;nan
7105;BME280;3594;42.152;24.714;2024-02-14T12:35:34;60620.38;;;10.72;nan
7105;BME280;3594;42.152;24.714;2024-02-14T12:38:08;60535.66;;;10.99;nan
7105;BME280;3594;42.152;24.714;2024-02-14T12:40:37;60534.63;;;10.94;nan
7105;BME280;3594;42.152;24.714;2024-02-14T12:43:03;60573.22;;;11.13;nan
7105;BME280;3594;42.152;24.714;2024-02-14T12:45:31;60584.53;;;11.34;nan
7105;BME280;3594;42.152;24.714;2024-02-14T12:47:57;60643.97;;;11.51;nan
7105;BME280;3594;42.152;24.714;2024-02-14T12:50:22;60649.47;;;11.61;nan
7105;BME280;3594;42.152;24.714;2024-02-14T12:52:48;60688.47;;;11.15;nan
7105;BME280;3594;42.152;24.714;2024-02-14T12:55:14;60674.84;;;11.37;nan
7105;BME280;3594;42.152;24.714;2024-02-14T12:57:39;60785.94;;;11.59;nan
7105;BME280;3594;42.152;24.714;2024-02-14T13:00:06;60733.91;;;11.61;nan
7105;BME280;3594;42.152;24.714;2024-02-14T13:02:36;60711.69;;;11.64;nan
7105;BME280;3594;42.152;24.714;2024-02-14T13:05:04;60700.97;;;11.59;nan
7105;BME280;3594;42.152;24.714;2024-02-14T13:07:33;60713.75;;;11.79;nan
7105;BME280;3594;42.152;24.714;2024-02-14T13:09:59;60596.59;;;11.64;nan
7105;BME280;3594;42.152;24.714;2024-02-14T13:12:25;60721.75;;;11.36;nan
7105;BME280;3594;42.152;24.714;2024-02-14T13:14:51;60659.44;;;11.21;nan
7105;BME280;3594;42.152;24.714;2024-02-14T13:17:16;60741.25;;;10.96;nan
7105;BME280;3594;42.152;24.714;2024-02-14T13:19:42;60633.34;;;11.00;nan
7105;BME280;3594;42.152;24.714;2024-02-14T13:22:08;60625.91;;;10.61;nan
7105;BME280;3594;42.152;24.714;2024-02-14T13:24:34;60640.03;;;10.64;nan
7105;BME280;3594;42.152;24.714;2024-02-14T13:27:00;60530.78;;;10.65;nan
7105;BME280;3594;42.152;24.714;2024-02-14T13:29:25;60478.19;;;10.71;nan
7105;BME280;3594;42.152;24.714;2024-02-14T13:31:51;60521.94;;;10.69;nan
7105;BME280;3594;42.152;24.714;2024-02-14T13:34:17;60497.75;;;10.35;nan
7105;BME280;3594;42.152;24.714;2024-02-14T13:36:45;60480.50;;;10.31;nan
7105;BME280;3594;42.152;24.714;2024-02-14T13:39:11;60629.28;;;10.13;nan